Rosedale, Illinois
Current Conditions -  °F | °C
As of 7:35 PM on Wednesday 26 Nov 2014 (Local Time) from KSET Reporting Station
Haze Haze  
Wind Chill: 33°   Ceiling: 1600
Heat Index: 33°   Visibility: 1mi
Dew Point: 32°   Wind: 0mph
Humidity: 96%   Direction: NA
Pressure: 30.07"   Gusts: NA
Location:  39.1226°N, 90.5371°W
Report Text: KSET 270135Z AUTO 00000KT 1SM BR SCT005 BKN016 OVC025 01/00 A3007 RMK AO2 UPB16E26 P0001 T00060000
Loading
Personal Weather Stations






























Interactive Weather Map New forecast layout! Learn more

10-Day Weather Forecast

Advertisements
Track Severe Weather on mobile